createdAt,value
2017-05-09T00:01:22.139Z,61.30
2017-05-09T00:03:51.985Z,61.20
2017-05-09T00:06:20.922Z,61.20
2017-05-09T00:08:50.283Z,61.10
2017-05-09T00:11:19.252Z,61.50
2017-05-09T00:13:48.208Z,63.10
2017-05-09T00:16:17.192Z,62.90
2017-05-09T00:18:46.127Z,61.90
2017-05-09T00:21:15.365Z,61.40
2017-05-09T00:23:45.057Z,61.20
2017-05-09T00:26:14.774Z,61.10
2017-05-09T00:28:44.491Z,61.50
2017-05-09T00:31:13.475Z,62.00
2017-05-09T00:33:43.480Z,62.60
2017-05-09T00:36:12.442Z,62.20
2017-05-09T00:38:41.451Z,61.80
2017-05-09T00:41:10.416Z,62.40
2017-05-09T00:43:39.389Z,61.60
2017-05-09T00:46:08.760Z,61.20
2017-05-09T00:48:38.438Z,61.60
2017-05-09T00:51:07.407Z,62.00
2017-05-09T00:53:36.370Z,61.90
2017-05-09T00:56:05.317Z,62.80
2017-05-09T00:58:34.346Z,61.90
2017-05-09T01:01:03.305Z,61.80
2017-05-09T01:03:32.522Z,61.80
2017-05-09T01:06:02.227Z,61.80
2017-05-09T01:08:31.929Z,62.60
2017-05-09T01:11:01.630Z,62.00
2017-05-09T01:13:30.672Z,61.80
2017-05-09T01:16:00.043Z,61.60
2017-05-09T01:18:29.743Z,61.70
2017-05-09T01:20:59.721Z,62.50
2017-05-09T01:23:28.702Z,61.90
2017-05-09T01:25:57.663Z,61.80
2017-05-09T01:28:26.690Z,61.80
2017-05-09T01:30:55.638Z,61.60
2017-05-09T01:33:25.642Z,61.90
2017-05-09T01:35:55.350Z,61.90
2017-05-09T01:38:25.052Z,61.80
2017-05-09T01:40:54.769Z,61.80
2017-05-09T01:43:24.444Z,61.50
2017-05-09T01:45:53.668Z,61.60
2017-05-09T01:48:23.380Z,61.60
2017-05-09T01:50:53.088Z,61.40
2017-05-09T01:53:22.828Z,61.20
2017-05-09T01:55:51.786Z,61.50
2017-05-09T01:58:21.807Z,61.60
2017-05-09T02:00:51.523Z,61.70
2017-05-09T02:03:21.478Z,62.70
2017-05-09T02:05:50.430Z,62.50
2017-05-09T02:08:20.120Z,62.20
2017-05-09T02:10:49.092Z,62.70
2017-05-09T02:13:18.044Z,62.70
2017-05-09T02:15:47.333Z,62.70
2017-05-09T02:18:16.373Z,63.40
2017-05-09T02:20:45.334Z,62.60
2017-05-09T02:23:14.364Z,62.60
2017-05-09T02:25:43.315Z,62.60
2017-05-09T02:28:12.678Z,62.60
2017-05-09T02:30:41.651Z,62.60
2017-05-09T02:33:10.703Z,62.60
2017-05-09T02:35:39.702Z,62.60
2017-05-09T02:38:08.638Z,62.40
2017-05-09T02:40:38.121Z,62.70
2017-05-09T02:43:07.041Z,62.60
2017-05-09T02:45:38.855Z,62.60
2017-05-09T02:48:07.794Z,62.60
2017-05-09T02:50:37.514Z,62.60
2017-05-09T02:53:07.203Z,62.60
2017-05-09T02:55:36.173Z,62.60
2017-05-09T02:58:05.466Z,62.60
2017-05-09T03:00:34.408Z,62.60
2017-05-09T03:03:03.353Z,64.30
2017-05-09T03:05:32.313Z,62.80
2017-05-09T03:08:01.275Z,62.70
2017-05-09T03:10:31.384Z,62.80
2017-05-09T03:13:01.079Z,62.60
2017-05-09T03:15:30.034Z,62.70
2017-05-09T03:17:59.725Z,63.40
2017-05-09T03:20:28.856Z,62.70
2017-05-09T03:22:58.093Z,63.40
2017-05-09T03:25:27.765Z,62.60
2017-05-09T03:27:56.698Z,62.60
2017-05-09T03:30:26.404Z,62.20
2017-05-09T03:32:56.076Z,62.30
2017-05-09T03:35:25.386Z,62.60
2017-05-09T03:37:54.347Z,62.40
2017-05-09T03:40:23.291Z,62.20
2017-05-09T03:42:53.000Z,62.70
2017-05-09T03:45:22.737Z,62.10
2017-05-09T03:47:52.003Z,62.40
2017-05-09T03:50:21.694Z,62.30
2017-05-09T03:52:50.635Z,62.40
2017-05-09T03:55:19.612Z,62.70
2017-05-09T03:57:48.712Z,62.00
2017-05-09T04:00:17.673Z,62.00
2017-05-09T04:02:47.364Z,61.90
2017-05-09T04:05:16.394Z,62.10
2017-05-09T04:07:45.666Z,61.50
2017-05-09T04:10:14.603Z,61.50
2017-05-09T04:12:43.598Z,61.40
2017-05-09T04:15:12.739Z,61.80
2017-05-09T04:17:41.670Z,61.70
2017-05-09T04:20:10.944Z,61.90
2017-05-09T04:22:40.748Z,62.10
2017-05-09T04:25:10.840Z,61.90
2017-05-09T04:27:39.829Z,62.20
2017-05-09T04:30:08.763Z,62.30
2017-05-09T04:32:38.467Z,62.90
2017-05-09T04:35:08.143Z,62.20
2017-05-09T04:37:37.516Z,61.60
2017-05-09T04:40:06.460Z,61.30
2017-05-09T04:42:36.142Z,61.20
2017-05-09T04:45:05.112Z,60.80
2017-05-09T04:47:34.046Z,60.80
2017-05-09T04:50:04.050Z,60.90
2017-05-09T04:52:32.984Z,60.20
2017-05-09T04:55:01.955Z,59.00
2017-05-09T04:57:31.665Z,59.10
2017-05-09T05:00:01.364Z,59.10
2017-05-09T05:02:31.482Z,58.90
2017-05-09T05:05:01.168Z,58.60
2017-05-09T05:07:30.138Z,58.20
2017-05-09T05:09:59.103Z,57.70
2017-05-09T05:12:28.058Z,57.50
2017-05-09T05:14:57.387Z,57.80
2017-05-09T05:17:26.311Z,57.90
2017-05-09T05:19:55.277Z,56.40
2017-05-09T05:22:24.271Z,56.40
2017-05-09T05:24:53.206Z,56.40
2017-05-09T05:27:22.519Z,56.00
2017-05-09T05:29:51.467Z,55.00
2017-05-09T05:32:20.450Z,54.50
2017-05-09T05:34:49.434Z,53.10
2017-05-09T05:37:18.383Z,53.60
2017-05-09T05:39:47.690Z,52.70
2017-05-09T05:42:17.379Z,53.10
2017-05-09T05:44:46.359Z,52.00
2017-05-09T05:47:15.331Z,52.10
2017-05-09T05:49:44.267Z,52.00
2017-05-09T05:52:13.582Z,51.30
2017-05-09T05:54:43.363Z,51.20
2017-05-09T05:57:12.335Z,51.10
2017-05-09T05:59:41.312Z,50.80
2017-05-09T06:02:10.349Z,51.30
2017-05-09T06:04:39.679Z,50.40
2017-05-09T06:07:09.421Z,49.10
2017-05-09T06:09:38.710Z,49.20
2017-05-09T06:12:07.695Z,48.80
2017-05-09T06:14:36.669Z,48.60
2017-05-09T06:17:06.755Z,48.60
2017-05-09T06:19:35.699Z,48.70
2017-05-09T06:22:04.688Z,47.10
2017-05-09T06:24:33.644Z,48.10
2017-05-09T06:27:02.605Z,48.10
2017-05-09T06:29:31.966Z,47.00
2017-05-09T06:32:00.927Z,48.90
2017-05-09T06:34:30.609Z,47.00
2017-05-09T06:36:59.620Z,47.60
2017-05-09T06:39:28.618Z,47.30
2017-05-09T06:41:57.911Z,47.20
2017-05-09T06:44:27.612Z,47.60
2017-05-09T06:46:56.555Z,46.80
2017-05-09T06:49:25.536Z,47.20
2017-05-09T06:51:54.570Z,47.50
2017-05-09T06:54:23.897Z,47.10
2017-05-09T06:56:52.858Z,47.80
2017-05-09T06:59:24.324Z,47.10
2017-05-09T07:01:53.315Z,46.60
2017-05-09T07:04:22.263Z,46.20
2017-05-09T07:06:51.274Z,46.40
2017-05-09T07:09:20.229Z,45.70
2017-05-09T07:11:49.938Z,46.10
2017-05-09T07:14:19.622Z,45.90
2017-05-09T07:16:48.849Z,45.00
2017-05-09T07:19:17.810Z,45.80
2017-05-09T07:21:47.519Z,44.80
2017-05-09T07:24:16.509Z,43.10
2017-05-09T07:26:45.473Z,43.70
2017-05-09T07:29:14.777Z,44.00
2017-05-09T07:31:43.725Z,43.20
2017-05-09T07:34:12.722Z,43.70
2017-05-09T07:36:41.658Z,43.00
2017-05-09T07:39:10.720Z,40.90
2017-05-09T07:41:39.996Z,41.10
2017-05-09T07:44:08.946Z,41.70
2017-05-09T07:46:37.905Z,42.20
2017-05-09T07:49:06.883Z,42.20
2017-05-09T07:51:35.891Z,40.90
2017-05-09T07:54:05.233Z,39.80
2017-05-09T07:56:34.167Z,41.00
2017-05-09T07:59:03.160Z,39.40
2017-05-09T08:01:32.147Z,36.60
2017-05-09T08:04:01.541Z,37.50
2017-05-09T08:06:30.502Z,37.60
2017-05-09T08:08:59.428Z,36.70
2017-05-09T08:11:28.385Z,37.10
2017-05-09T08:13:58.119Z,37.40
2017-05-09T08:16:27.376Z,36.80
2017-05-09T08:18:56.359Z,36.60
2017-05-09T08:21:25.408Z,37.00
2017-05-09T08:23:54.410Z,36.20
2017-05-09T08:26:23.350Z,36.60
2017-05-09T08:28:52.640Z,36.20
2017-05-09T08:31:21.595Z,36.50
2017-05-09T08:33:50.664Z,36.00
2017-05-09T08:36:19.682Z,36.00
2017-05-09T08:38:48.642Z,35.40
2017-05-09T08:41:18.766Z,36.50
2017-05-09T08:43:47.772Z,38.50
2017-05-09T08:46:16.892Z,35.00
2017-05-09T08:48:45.947Z,35.80
2017-05-09T08:51:15.665Z,35.70
2017-05-09T08:53:44.956Z,35.80
2017-05-09T08:56:14.723Z,34.80
2017-05-09T08:58:43.692Z,33.20
2017-05-09T09:01:12.767Z,34.20
2017-05-09T09:03:41.715Z,34.90
2017-05-09T09:06:11.016Z,33.80
2017-05-09T09:08:39.997Z,33.60
2017-05-09T09:11:08.992Z,34.30
2017-05-09T09:13:37.951Z,32.90
2017-05-09T09:16:06.959Z,33.00
2017-05-09T09:18:36.298Z,33.50
2017-05-09T09:21:05.994Z,33.20
2017-05-09T09:23:34.981Z,33.90
2017-05-09T09:26:03.954Z,34.60
2017-05-09T09:28:32.915Z,32.20
2017-05-09T09:31:02.280Z,34.70
2017-05-09T09:33:32.055Z,32.50
2017-05-09T09:36:01.035Z,33.00
2017-05-09T09:38:30.105Z,32.50
2017-05-09T09:40:59.076Z,32.50
2017-05-09T09:43:29.304Z,32.50
2017-05-09T09:45:59.151Z,32.90
2017-05-09T09:48:28.129Z,32.40
2017-05-09T09:50:57.092Z,33.90
2017-05-09T09:53:26.051Z,33.70
2017-05-09T09:55:55.611Z,32.60
2017-05-09T09:58:24.595Z,31.30
2017-05-09T10:00:54.979Z,32.30
2017-05-09T10:03:30.018Z,31.70
2017-05-09T10:05:59.034Z,34.00
2017-05-09T10:08:28.332Z,32.70
2017-05-09T10:10:58.013Z,33.80
2017-05-09T10:13:27.089Z,32.80
2017-05-09T10:15:56.063Z,34.60
2017-05-09T10:18:25.012Z,33.10
2017-05-09T10:20:55.322Z,34.20
2017-05-09T10:23:24.280Z,34.20
2017-05-09T10:25:53.225Z,32.50
2017-05-09T10:28:22.943Z,31.40
2017-05-09T10:30:51.922Z,31.80
2017-05-09T10:33:21.943Z,34.10
2017-05-09T10:35:50.902Z,33.10
2017-05-09T10:38:19.837Z,32.70
2017-05-09T10:40:48.961Z,31.70
2017-05-09T10:43:17.907Z,33.00
2017-05-09T10:45:47.261Z,31.90
2017-05-09T10:48:16.290Z,30.70
2017-05-09T10:50:46.001Z,31.70
2017-05-09T10:53:15.758Z,32.40
2017-05-09T10:55:44.750Z,31.10
2017-05-09T10:58:14.226Z,31.90
2017-05-09T11:00:43.464Z,31.80
2017-05-09T11:03:12.438Z,33.10
2017-05-09T11:05:41.403Z,33.60
2017-05-09T11:08:10.354Z,32.40
2017-05-09T11:10:39.598Z,30.20
2017-05-09T11:13:09.190Z,29.80
2017-05-09T11:15:38.938Z,31.20
2017-05-09T11:18:07.971Z,29.30
2017-05-09T11:20:36.904Z,30.10
2017-05-09T11:23:06.155Z,29.70
2017-05-09T11:25:35.130Z,30.00
2017-05-09T11:28:04.111Z,31.40
2017-05-09T11:30:33.111Z,29.40
2017-05-09T11:33:02.174Z,29.80
2017-05-09T11:35:31.391Z,30.00
2017-05-09T11:38:00.331Z,32.90
2017-05-09T11:40:30.070Z,31.30
2017-05-09T11:42:59.044Z,31.00
2017-05-09T11:45:28.745Z,28.70
2017-05-09T11:47:58.861Z,29.40
2017-05-09T11:50:28.588Z,28.10
2017-05-09T11:52:57.550Z,28.30
2017-05-09T11:55:26.513Z,28.70
2017-05-09T11:57:55.494Z,28.30
2017-05-09T12:00:24.844Z,29.00
2017-05-09T12:02:54.723Z,29.10
2017-05-09T12:05:23.710Z,31.90
2017-05-09T12:07:52.682Z,30.00
2017-05-09T12:10:21.631Z,31.30
2017-05-09T12:12:51.663Z,30.70
2017-05-09T12:15:20.654Z,32.70
2017-05-09T12:17:49.582Z,30.90
2017-05-09T12:20:18.686Z,30.30
2017-05-09T12:22:47.655Z,33.60
2017-05-09T12:25:16.937Z,30.00
2017-05-09T12:27:45.926Z,29.60
2017-05-09T12:30:15.420Z,29.60
2017-05-09T12:32:44.386Z,32.60
2017-05-09T12:35:13.335Z,30.00
2017-05-09T12:37:42.602Z,33.00
2017-05-09T12:40:12.215Z,31.10
2017-05-09T12:42:41.181Z,31.90
2017-05-09T12:45:10.203Z,31.40
2017-05-09T12:47:39.161Z,32.30
2017-05-09T12:50:08.483Z,30.30
2017-05-09T12:52:38.195Z,30.90
2017-05-09T12:55:08.005Z,29.80
2017-05-09T12:57:37.013Z,30.20
2017-05-09T13:00:05.978Z,29.70
2017-05-09T13:02:35.984Z,29.20
2017-05-09T13:05:04.922Z,29.60
2017-05-09T13:07:33.861Z,30.20
2017-05-09T13:10:02.939Z,28.90
2017-05-09T13:12:31.895Z,29.40
2017-05-09T13:15:01.267Z,28.50
2017-05-09T13:17:30.979Z,29.80
2017-05-09T13:20:01.197Z,29.30
2017-05-09T13:22:30.168Z,28.30
2017-05-09T13:24:59.128Z,29.10
2017-05-09T13:27:28.227Z,28.90
2017-05-09T13:29:57.194Z,26.10
2017-05-09T13:32:26.557Z,26.90
2017-05-09T13:34:56.301Z,27.80
2017-05-09T13:37:25.264Z,28.70
2017-05-09T13:39:54.977Z,28.10
2017-05-09T13:42:24.695Z,28.60
2017-05-09T13:44:53.991Z,29.30
2017-05-09T13:47:22.931Z,27.70
2017-05-09T13:49:51.884Z,27.50
2017-05-09T13:52:20.869Z,27.20
2017-05-09T13:54:49.818Z,28.60
2017-05-09T13:57:19.068Z,26.80
2017-05-09T13:59:48.037Z,26.90
2017-05-09T14:02:17.720Z,28.50
2017-05-09T14:04:46.674Z,28.30
2017-05-09T14:07:15.654Z,27.80
2017-05-09T14:09:45.029Z,30.00
2017-05-09T14:12:14.743Z,31.40
2017-05-09T14:14:44.785Z,29.60
2017-05-09T14:17:13.760Z,30.00
2017-05-09T14:19:42.702Z,30.50
2017-05-09T14:22:11.673Z,29.60
2017-05-09T14:24:40.711Z,31.90
2017-05-09T14:27:09.995Z,31.20
2017-05-09T14:29:38.971Z,31.90
2017-05-09T14:32:07.976Z,32.10
2017-05-09T14:34:36.969Z,34.20
2017-05-09T14:37:05.911Z,35.20
2017-05-09T14:39:35.247Z,35.20
2017-05-09T14:42:04.240Z,35.60
2017-05-09T14:44:33.236Z,37.00
2017-05-09T14:47:02.320Z,36.30
2017-05-09T14:49:31.319Z,36.60
2017-05-09T14:52:00.755Z,37.10
2017-05-09T14:54:30.497Z,36.40
2017-05-09T14:56:59.469Z,34.80
2017-05-09T14:59:28.656Z,35.60
2017-05-09T15:01:58.379Z,35.30
2017-05-09T15:04:29.131Z,35.90
2017-05-09T15:06:58.153Z,35.50
2017-05-09T15:09:27.130Z,35.80
2017-05-09T15:11:56.096Z,35.60
2017-05-09T15:14:25.111Z,34.60
2017-05-09T15:16:54.484Z,35.00
2017-05-09T15:19:23.416Z,34.50
2017-05-09T15:21:52.409Z,35.00
2017-05-09T15:24:21.412Z,35.20
2017-05-09T15:26:50.369Z,37.00
2017-05-09T15:29:19.718Z,38.30
2017-05-09T15:31:48.689Z,37.60
2017-05-09T15:34:17.651Z,38.80
2017-05-09T15:36:46.638Z,39.60
2017-05-09T15:39:15.598Z,39.90
2017-05-09T15:41:45.616Z,41.70
2017-05-09T15:44:15.297Z,42.60
2017-05-09T15:46:44.279Z,41.10
2017-05-09T15:49:13.258Z,42.60
2017-05-09T15:51:42.250Z,44.40
2017-05-09T15:54:11.472Z,43.50
2017-05-09T15:56:40.403Z,44.10
2017-05-09T15:59:13.393Z,41.70
2017-05-09T16:01:42.424Z,40.80
2017-05-09T16:04:11.386Z,41.10
2017-05-09T16:06:40.358Z,41.40
2017-05-09T16:09:10.102Z,41.90
2017-05-09T16:11:39.612Z,42.30
2017-05-09T16:14:08.614Z,42.80
2017-05-09T16:16:37.623Z,42.00
2017-05-09T16:19:06.648Z,41.60
2017-05-09T16:21:35.589Z,41.50
2017-05-09T16:24:04.605Z,42.70
2017-05-09T16:26:33.584Z,43.20
2017-05-09T16:29:04.033Z,43.90
2017-05-09T16:31:33.019Z,43.00
2017-05-09T16:34:02.016Z,43.00
2017-05-09T16:36:31.027Z,42.80
2017-05-09T16:38:59.979Z,42.90
2017-05-09T16:41:29.267Z,44.40
2017-05-09T16:43:58.229Z,44.00
2017-05-09T16:46:27.201Z,44.80
2017-05-09T16:48:56.263Z,44.90
2017-05-09T16:51:25.227Z,44.00
2017-05-09T16:53:54.520Z,44.20
2017-05-09T16:56:23.479Z,44.40
2017-05-09T16:58:53.178Z,45.00
2017-05-09T17:01:23.006Z,45.50
2017-05-09T17:03:56.282Z,44.50
2017-05-09T17:06:25.786Z,45.80
2017-05-09T17:08:55.521Z,46.20
2017-05-09T17:11:24.675Z,46.80
2017-05-09T17:13:53.692Z,47.00
2017-05-09T17:16:22.838Z,47.90
2017-05-09T17:18:52.101Z,48.00
2017-05-09T17:23:47.074Z,47.60
2017-05-09T17:26:16.092Z,47.70
2017-05-09T17:28:45.125Z,47.20
2017-05-09T17:31:14.443Z,47.60
2017-05-09T17:33:43.446Z,48.00
2017-05-09T17:36:12.537Z,48.00
2017-05-09T17:38:41.640Z,48.70
2017-05-09T17:41:10.792Z,49.60
2017-05-09T17:43:40.349Z,49.20
2017-05-09T17:46:09.387Z,49.60
2017-05-09T17:48:38.417Z,50.70
2017-05-09T17:51:07.459Z,50.80
2017-05-09T17:53:36.451Z,51.20
2017-05-09T17:56:05.928Z,51.70
2017-05-09T17:58:37.789Z,52.00
2017-05-09T18:01:07.304Z,52.80
2017-05-09T18:03:36.282Z,52.60
2017-05-09T18:06:06.047Z,51.90
2017-05-09T18:08:35.061Z,52.10
2017-05-09T18:11:04.047Z,53.00
2017-05-09T18:13:33.445Z,52.80
2017-05-09T18:16:02.548Z,53.10
2017-05-09T18:18:31.540Z,53.40
2017-05-09T18:21:01.023Z,53.80
2017-05-09T18:23:30.039Z,54.20
2017-05-09T18:25:59.273Z,54.40
2017-05-09T18:28:28.683Z,54.80
2017-05-09T18:30:58.630Z,55.80
2017-05-09T18:33:27.723Z,55.60
2017-05-09T18:35:57.083Z,55.50
2017-05-09T18:38:26.835Z,55.80
2017-05-09T18:40:55.852Z,55.80
2017-05-09T18:43:25.219Z,54.80
2017-05-09T18:45:54.197Z,55.40
2017-05-09T18:48:23.187Z,55.40
2017-05-09T18:50:52.484Z,55.70
2017-05-09T18:53:21.516Z,56.20
2017-05-09T18:55:50.526Z,55.50
2017-05-09T18:58:19.912Z,55.10
2017-05-09T19:00:49.048Z,55.40
2017-05-09T19:03:18.399Z,55.90
2017-05-09T19:05:47.815Z,55.80
2017-05-09T19:08:16.859Z,55.90
2017-05-09T19:10:45.993Z,56.50
2017-05-09T19:13:15.519Z,56.70
2017-05-09T19:15:44.662Z,56.80
2017-05-09T19:18:13.756Z,57.20
2017-05-09T19:20:43.290Z,57.30
2017-05-09T19:23:12.446Z,57.90
2017-05-09T19:25:41.591Z,57.90
2017-05-09T19:28:11.102Z,58.10
2017-05-09T19:30:40.296Z,57.80
2017-05-09T19:33:09.396Z,58.20
2017-05-09T19:35:39.702Z,58.80
2017-05-09T19:38:08.830Z,58.90
2017-05-09T19:40:38.773Z,58.80
2017-05-09T19:43:08.202Z,59.10
2017-05-09T19:45:37.315Z,58.90
2017-05-09T19:48:06.442Z,58.90
2017-05-09T19:50:36.583Z,58.90
2017-05-09T19:53:05.669Z,58.80
2017-05-09T19:55:34.756Z,58.80
2017-05-09T19:58:04.872Z,59.00
2017-05-09T20:00:33.921Z,59.40
2017-05-09T20:03:02.983Z,58.80
2017-05-09T20:05:32.417Z,58.80
2017-05-09T20:08:01.494Z,58.70
2017-05-09T20:10:30.594Z,58.30
2017-05-09T20:13:00.229Z,58.70
2017-05-09T20:15:29.295Z,58.10
2017-05-09T20:17:58.393Z,56.30
2017-05-09T20:20:27.787Z,55.70
2017-05-09T20:22:56.763Z,55.50
2017-05-09T20:25:25.756Z,55.90
2017-05-09T20:27:55.080Z,55.90
2017-05-09T20:30:24.059Z,56.10
2017-05-09T20:32:53.074Z,56.60
2017-05-09T20:35:22.453Z,56.30
2017-05-09T20:37:51.449Z,56.60
2017-05-09T20:40:20.424Z,56.80
2017-05-09T20:42:49.788Z,57.00
2017-05-09T20:45:19.534Z,57.20
2017-05-09T20:47:48.534Z,57.50
2017-05-09T20:50:17.953Z,58.40
2017-05-09T20:52:46.998Z,58.50
2017-05-09T20:55:15.953Z,58.40
2017-05-09T20:57:45.244Z,59.30
2017-05-09T21:00:14.233Z,59.90
2017-05-09T21:02:43.190Z,60.40
2017-05-09T21:05:12.575Z,60.70
2017-05-09T21:07:42.341Z,61.10
2017-05-09T21:10:11.321Z,61.90
2017-05-09T21:12:40.796Z,61.50
2017-05-09T21:15:09.828Z,61.80
2017-05-09T21:17:38.876Z,61.40
2017-05-09T21:20:08.930Z,62.00
2017-05-09T21:22:37.876Z,61.70
2017-05-09T21:25:08.926Z,61.70
2017-05-09T21:27:37.916Z,63.00
2017-05-09T21:30:06.875Z,62.50
2017-05-09T21:32:36.178Z,62.10
2017-05-09T21:35:05.118Z,62.40
2017-05-09T21:37:34.060Z,62.30
2017-05-09T21:40:04.094Z,62.10
2017-05-09T21:42:33.776Z,63.00
2017-05-09T21:45:02.746Z,62.80
2017-05-09T21:47:31.986Z,63.10
2017-05-09T21:50:01.706Z,63.10
2017-05-09T21:52:31.808Z,63.70
2017-05-09T21:55:00.764Z,63.40
2017-05-09T21:57:29.710Z,63.70
2017-05-09T21:59:59.730Z,64.00
2017-05-09T22:02:28.771Z,64.00
2017-05-09T22:04:57.766Z,63.90
2017-05-09T22:07:27.027Z,63.90
2017-05-09T22:09:55.983Z,63.80
2017-05-09T22:12:25.025Z,63.90
2017-05-09T22:15:17.863Z,63.40
2017-05-09T22:17:47.050Z,63.50
2017-05-09T22:20:16.013Z,63.50
2017-05-09T22:22:45.313Z,63.40
2017-05-09T22:25:14.253Z,63.30
2017-05-09T22:27:43.190Z,63.20
2017-05-09T22:30:12.425Z,63.50
2017-05-09T22:32:41.378Z,64.30
2017-05-09T22:35:10.435Z,64.50
2017-05-09T22:37:39.680Z,64.60
2017-05-09T22:40:09.361Z,65.10
2017-05-09T22:42:38.348Z,65.60
2017-05-09T22:45:07.683Z,65.50
2017-05-09T22:47:36.651Z,65.30
2017-05-09T22:50:05.654Z,65.60
2017-05-09T22:52:35.005Z,65.80
2017-05-09T22:55:03.977Z,66.10
2017-05-09T22:57:32.987Z,66.30
2017-05-09T23:00:02.483Z,66.80
2017-05-09T23:02:31.439Z,66.80
2017-05-09T23:05:00.453Z,66.80
2017-05-09T23:07:29.733Z,66.90
2017-05-09T23:09:59.454Z,66.90
2017-05-09T23:12:29.549Z,66.90
2017-05-09T23:14:58.549Z,66.90
2017-05-09T23:17:27.494Z,66.80
2017-05-09T23:19:56.827Z,66.70
2017-05-09T23:22:25.782Z,67.50
2017-05-09T23:24:54.735Z,67.20
2017-05-09T23:27:24.026Z,67.20
2017-05-09T23:29:53.794Z,67.40
2017-05-09T23:32:22.756Z,67.50
2017-05-09T23:34:52.124Z,67.50
2017-05-09T23:37:21.843Z,67.80
2017-05-09T23:39:51.952Z,67.60
2017-05-09T23:42:21.632Z,67.30
2017-05-09T23:44:50.587Z,67.50
2017-05-09T23:47:19.950Z,67.50
2017-05-09T23:49:48.901Z,66.90
2017-05-09T23:52:17.843Z,66.90
2017-05-09T23:54:48.034Z,66.90
2017-05-09T23:57:16.988Z,67.40
2017-05-09T23:59:45.916Z,67.60
